Página principal
METAR-TAF:

METAR-TAF

Aeroportos :

Madrid-Cuatro Vientos, Espanha

latitude: 40-23N, longitude: 003-47W, altura: 690 m

Observação actual do tempo

O boletim foi feito há 18 minutos, às 05:30 UTC
Vento 2 kt de sudeste
Temperatura 12°C
Humidade 100%
Pressão 1014 hPa
Visibilidade 10 km ou mais
Poucas nuvensa uma altura de 800 ft

METAR: LEVS 260530Z 13002KT 9999 FEW008 12/12 Q1014

Hora: 07:48 (05:48 UTC)


TAF: em falta

Observações e previsões do tempo de mais de 4000 aeroportos (mensagens METAR e TAF).

As estações disponíveis são os pontos amarelos e vermelhos sobre o mapa.

Mova o rato sobre o mapa para ver o nome da estação.

Depois clique no ponto para visualizar as observações e previsões meteorológicas.

Para alterar o mapa : clique nos botões verdes com uma cruz preta para aumentar o zoom; no botão verde com uma pitada de zoom; ou nas setas verdes para mapas adjacentes.


METAR-TAF: